Time;durP1;ratioP1;P1;durP2;ratioP2;P2;SDS_P1;SDS_P2;PMS_P1;PMS_P2;Temp;Humidity;BMP_temperature;BMP_pressure;BME280_temperature;BME280_humidity;BME280_pressure;Samples;Min_cycle;Max_cycle;Signal;HPM_P1;HPM_P2
2023/04/05 00:02:12;;;;;;;4.20;2.35;;;-1.40;1.00;;;;;;5156840;28;20052;-69
2023/04/05 00:04:49;;;;;;;3.10;2.15;;;-1.30;1.00;;;;;;5156679;28;20049;-73
2023/04/05 00:07:20;;;;;;;2.75;1.88;;;-1.30;1.00;;;;;;5156483;28;20049;-73
2023/04/05 00:09:51;;;;;;;12.55;2.80;;;-1.30;1.00;;;;;;5215231;28;20033;-72
2023/04/05 00:12:22;;;;;;;4.83;2.30;;;-1.40;1.00;;;;;;5229726;28;20045;-73
2023/04/05 00:14:56;;;;;;;4.10;2.30;;;-1.40;1.00;;;;;;5230455;28;20035;-68
2023/04/05 00:17:28;;;;;;;5.63;2.92;;;-1.40;1.00;;;;;;5179882;28;20033;-70
2023/04/05 00:20:06;;;;;;;7.10;2.50;;;-1.50;1.00;;;;;;5214667;28;20029;-69
2023/04/05 00:22:46;;;;;;;5.53;2.73;;;-1.50;1.00;;;;;;5212670;28;20059;-71
2023/04/05 00:25:21;;;;;;;3.83;2.33;;;-1.50;1.00;;;;;;5218422;28;20033;-69
2023/04/05 00:27:52;;;;;;;2.33;1.83;;;-1.50;1.00;;;;;;5182752;28;20045;-70
2023/04/05 00:30:24;;;;;;;3.55;2.08;;;-1.40;1.00;;;;;;5208892;28;20570;-71
2023/04/05 00:32:57;;;;;;;2.83;2.03;;;-1.40;1.00;;;;;;5194132;28;20028;-68
2023/04/05 00:35:28;;;;;;;4.03;2.70;;;-1.50;1.00;;;;;;5171772;28;20042;-70
2023/04/05 00:38:02;;;;;;;5.50;2.75;;;-1.50;1.00;;;;;;5195639;28;20025;-71
2023/04/05 00:40:35;;;;;;;5.60;2.45;;;-1.40;1.00;;;;;;5193423;28;20490;-72
2023/04/05 00:43:09;;;;;;;4.05;1.98;;;-1.40;1.00;;;;;;5215629;28;20227;-70
2023/04/05 00:45:41;;;;;;;3.60;2.40;;;-1.40;1.00;;;;;;5175273;28;20041;-72
2023/04/05 00:48:12;;;;;;;8.02;3.13;;;-1.50;1.00;;;;;;5163193;28;20030;-70
2023/04/05 00:50:47;;;;;;;3.00;2.20;;;-1.40;1.00;;;;;;5215071;28;20029;-68
2023/04/05 00:53:26;;;;;;;2.95;2.40;;;-1.40;1.00;;;;;;5199174;28;20013;-72
2023/04/05 00:56:00;;;;;;;4.03;2.90;;;-1.50;1.00;;;;;;5167848;28;20607;-70
2023/04/05 00:58:32;;;;;;;;;;;-1.50;1.00;;;;;;5196538;28;20420;-71
2023/04/05 01:01:21;;;;;;;5.00;2.67;;;-1.50;1.00;;;;;;5262265;22;19916;-69
2023/04/05 01:04:02;;;;;;;3.63;2.60;;;-1.60;1.00;;;;;;5267659;22;20067;-64
2023/04/05 01:06:53;;;;;;;5.75;2.15;;;-1.60;1.00;;;;;;5204975;28;20045;-63
2023/04/05 01:09:47;;;;;;;4.53;2.07;;;-1.60;1.00;;;;;;5215537;28;20025;-62
2023/04/05 01:12:24;;;;;;;4.20;2.20;;;-1.60;1.00;;;;;;5220158;28;20533;-63
2023/04/05 01:14:56;;;;;;;3.83;2.87;;;-1.60;1.00;;;;;;5216269;28;20029;-63
2023/04/05 01:17:28;;;;;;;3.47;1.70;;;-1.50;1.00;;;;;;5200559;28;20620;-63
2023/04/05 01:20:14;;;;;;;2.77;2.50;;;-1.60;1.00;;;;;;5202975;28;20024;-62
2023/04/05 01:22:45;;;;;;;3.73;2.40;;;-1.60;1.00;;;;;;5217082;28;20031;-63
2023/04/05 01:25:46;;;;;;;4.70;3.10;;;-1.60;1.00;;;;;;5182493;28;20543;-63
2023/04/05 01:28:35;;;;;;;3.80;2.00;;;-1.50;1.00;;;;;;5234244;28;20044;-64
2023/04/05 01:31:41;;;;;;;2.40;2.20;;;-1.50;1.00;;;;;;5195232;28;20041;-63
2023/04/05 01:34:15;;;;;;;3.27;2.17;;;-1.50;1.00;;;;;;5150662;28;20044;-64
2023/04/05 01:36:55;;;;;;;4.00;2.57;;;-1.50;1.00;;;;;;5137923;28;20034;-64
2023/04/05 01:39:28;;;;;;;7.63;1.98;;;-1.50;1.00;;;;;;5151381;28;20652;-63
2023/04/05 01:42:01;;;;;;;5.03;1.73;;;-1.50;1.00;;;;;;5120887;28;20030;-62
2023/04/05 01:44:35;;;;;;;3.00;2.22;;;-1.50;1.00;;;;;;5136427;28;20281;-63
2023/04/05 01:47:09;;;;;;;2.95;1.83;;;-1.50;1.00;;;;;;5155398;28;20038;-62
2023/04/05 01:49:50;;;;;;;3.38;2.17;;;-1.50;1.00;;;;;;5153143;28;20030;-64
2023/04/05 01:52:27;;;;;;;4.23;2.07;;;-1.50;1.00;;;;;;5123002;28;20039;-63
2023/04/05 01:55:02;;;;;;;5.03;2.47;;;-1.50;1.00;;;;;;5118733;28;20030;-62
2023/04/05 01:57:40;;;;;;;3.10;2.20;;;-1.40;1.00;;;;;;5138516;28;20050;-64
2023/04/05 02:00:12;;;;;;;3.53;1.63;;;-1.40;1.00;;;;;;5132835;28;20478;-63
2023/04/05 02:02:43;;;;;;;3.17;2.47;;;-1.50;1.00;;;;;;5124482;28;20047;-64
2023/04/05 02:05:17;;;;;;;3.50;2.20;;;-1.60;1.00;;;;;;5121723;28;20050;-63
2023/04/05 02:07:54;;;;;;;5.22;2.30;;;-1.60;1.00;;;;;;5115218;28;20035;-62
2023/04/05 02:10:27;;;;;;;3.13;2.60;;;-1.60;1.00;;;;;;5155426;28;20130;-64
2023/04/05 02:13:01;;;;;;;4.30;2.30;;;-1.50;1.00;;;;;;5181407;28;20036;-60
2023/04/05 02:15:37;;;;;;;2.30;2.03;;;-1.50;1.00;;;;;;5196738;28;20469;-62
2023/04/05 02:18:09;;;;;;;2.67;2.30;;;-1.50;1.00;;;;;;5199627;28;20029;-63
2023/04/05 02:20:41;;;;;;;5.25;2.38;;;-1.50;1.00;;;;;;5212028;28;20086;-64
2023/04/05 02:23:15;;;;;;;5.47;2.37;;;-1.50;1.00;;;;;;5181313;28;20043;-62
2023/04/05 02:25:49;;;;;;;3.67;2.05;;;-1.50;1.00;;;;;;5181463;28;20045;-64
2023/04/05 02:28:20;;;;;;;2.67;2.10;;;-1.60;1.00;;;;;;5199158;28;20016;-62
2023/04/05 02:30:55;;;;;;;5.90;1.93;;;-1.60;1.00;;;;;;5233669;28;20020;-63
2023/04/05 02:33:28;;;;;;;4.68;2.95;;;-1.60;1.00;;;;;;5195552;28;20025;-64
2023/04/05 02:36:12;;;;;;;3.80;2.63;;;-1.70;1.00;;;;;;5180613;28;20108;-62
2023/04/05 02:38:43;;;;;;;3.97;2.20;;;-1.60;1.00;;;;;;5220974;28;20024;-63
2023/04/05 02:41:16;;;;;;;2.83;1.90;;;-1.60;1.00;;;;;;5198318;28;20035;-63
2023/04/05 02:43:49;;;;;;;3.17;2.08;;;-1.70;1.00;;;;;;5197117;28;20043;-63
2023/04/05 02:46:21;;;;;;;5.87;2.53;;;-1.70;1.00;;;;;;5196542;28;20063;-63
2023/04/05 02:48:58;;;;;;;2.63;2.00;;;-1.70;1.00;;;;;;5215335;28;20041;-64
2023/04/05 02:51:33;;;;;;;2.03;1.83;;;-1.70;1.00;;;;;;5172462;28;20495;-64
2023/04/05 02:54:06;;;;;;;2.73;2.10;;;-1.60;1.00;;;;;;5210435;28;20431;-63
2023/04/05 02:56:43;;;;;;;2.63;1.92;;;-1.60;1.00;;;;;;5192469;28;20051;-63
2023/04/05 02:59:15;;;;;;;2.03;1.37;;;-1.60;1.00;;;;;;5214678;28;20052;-63
2023/04/05 03:01:46;;;;;;;2.60;1.83;;;-1.60;1.00;;;;;;5177315;28;20059;-63
2023/04/05 03:04:18;;;;;;;3.47;1.93;;;-1.60;1.00;;;;;;5205026;28;20040;-63
2023/04/05 03:06:51;;;;;;;2.33;2.13;;;-1.70;1.00;;;;;;5201400;28;20052;-63
2023/04/05 03:09:28;;;;;;;1.93;1.83;;;-1.70;1.00;;;;;;5217187;28;20438;-64
2023/04/05 03:12:08;;;;;;;4.50;2.47;;;-1.70;59.40;;;;;;5201713;28;20034;-63
2023/04/05 03:14:45;;;;;;;2.17;1.87;;;-1.80;99.90;;;;;;5213284;28;20029;-62
2023/04/05 03:17:16;;;;;;;3.17;1.87;;;-1.80;99.90;;;;;;5224152;28;20035;-63
2023/04/05 03:19:48;;;;;;;3.80;2.00;;;-1.70;99.90;;;;;;5234430;28;20054;-63
2023/04/05 03:22:26;;;;;;;2.97;2.37;;;-1.70;1.00;;;;;;5234875;28;20039;-62
2023/04/05 03:24:57;;;;;;;2.23;2.10;;;-1.70;1.00;;;;;;5200651;28;20583;-62
2023/04/05 03:27:31;;;;;;;2.97;1.77;;;-1.70;42.20;;;;;;5190834;28;20166;-61
2023/04/05 03:30:05;;;;;;;4.03;1.90;;;-1.80;99.90;;;;;;5196722;28;20029;-64
2023/04/05 03:32:36;;;;;;;6.45;2.33;;;-1.80;99.90;;;;;;5199609;28;20020;-62
2023/04/05 03:35:12;;;;;;;2.43;1.63;;;-1.80;99.90;;;;;;5201311;28;20036;-61
2023/04/05 03:37:45;;;;;;;4.50;2.30;;;-1.70;1.00;;;;;;5198754;28;20444;-62
2023/04/05 03:40:19;;;;;;;5.47;2.63;;;-1.80;99.90;;;;;;5222226;28;20370;-62
2023/04/05 03:42:50;;;;;;;;;;;-1.80;99.90;;;;;;5215967;28;20028;-62
2023/04/05 03:45:23;;;;;;;4.90;2.13;;;-1.70;99.90;;;;;;5213963;28;19926;-62
2023/04/05 03:47:54;;;;;;;5.67;2.53;;;-1.70;99.90;;;;;;5214689;28;20280;-62
2023/04/05 03:50:30;;;;;;;3.00;1.60;;;-1.80;99.90;;;;;;5233493;28;20034;-62
2023/04/05 03:53:04;;;;;;;4.63;2.10;;;-1.70;99.90;;;;;;5215841;28;20032;-61
2023/04/05 03:55:35;;;;;;;2.70;2.15;;;-1.70;99.90;;;;;;5195392;28;20038;-63
2023/04/05 03:58:10;;;;;;;4.55;2.78;;;-1.70;99.90;;;;;;5215022;28;20495;-63
2023/04/05 04:00:44;;;;;;;7.60;2.33;;;-1.70;99.90;;;;;;5231752;28;20030;-63
2023/04/05 04:03:15;;;;;;;;;;;-1.70;99.90;;;;;;5212094;28;20048;-63
2023/04/05 04:05:49;;;;;;;4.85;2.10;;;-1.70;99.90;;;;;;5219671;28;20513;-62
2023/04/05 04:08:23;;;;;;;;;;;-1.70;99.90;;;;;;5215809;28;20482;-63
2023/04/05 04:10:57;;;;;;;2.20;2.00;;;-1.70;99.90;;;;;;5216811;28;19900;-62
2023/04/05 04:13:28;;;;;;;6.75;2.28;;;-1.70;99.90;;;;;;5216420;28;20041;-63
2023/04/05 04:16:02;;;;;;;3.77;2.13;;;-1.70;1.00;;;;;;5215791;28;20032;-62
2023/04/05 04:18:36;;;;;;;2.50;1.97;;;-1.70;1.00;;;;;;5194522;28;20306;-63
2023/04/05 04:21:09;;;;;;;3.53;2.20;;;-1.80;73.50;;;;;;5228982;28;20029;-62
2023/04/05 04:23:45;;;;;;;3.53;1.97;;;-1.70;23.30;;;;;;5236225;28;20036;-62
2023/04/05 04:26:25;;;;;;;4.88;3.10;;;-1.70;1.40;;;;;;5204240;28;20176;-62
2023/04/05 04:28:56;;;;;;;2.97;2.00;;;-1.70;1.00;;;;;;5207466;28;20031;-64
2023/04/05 04:31:35;;;;;;;3.05;2.55;;;-1.70;1.00;;;;;;5237046;28;20039;-63
2023/04/05 04:34:06;;;;;;;3.60;2.30;;;-1.70;1.00;;;;;;5242332;28;20106;-64
2023/04/05 04:36:41;;;;;;;4.60;2.87;;;-1.70;1.00;;;;;;5241366;28;20048;-63
2023/04/05 04:39:15;;;;;;;2.90;2.60;;;-1.70;1.00;;;;;;5203656;28;20042;-64
2023/04/05 04:41:47;;;;;;;2.78;2.15;;;-1.70;1.00;;;;;;5195882;28;20045;-63
2023/04/05 04:44:27;;;;;;;2.30;2.10;;;-1.70;1.00;;;;;;5182700;28;20039;-64
2023/04/05 04:46:58;;;;;;;4.55;2.10;;;-1.70;1.00;;;;;;5181933;28;20306;-63
2023/04/05 04:49:32;;;;;;;3.80;2.03;;;-1.70;1.00;;;;;;5209824;28;20480;-61
2023/04/05 04:52:03;;;;;;;3.58;2.33;;;-1.70;1.00;;;;;;5202841;28;20585;-62
2023/04/05 04:54:41;;;;;;;3.40;2.40;;;-1.70;1.00;;;;;;5238115;28;20480;-60
2023/04/05 04:57:19;;;;;;;4.73;2.50;;;-1.70;1.00;;;;;;5205337;28;20044;-63
2023/04/05 04:59:50;;;;;;;4.55;2.28;;;-1.60;1.00;;;;;;5208988;28;20028;-62
2023/04/05 05:02:30;;;;;;;3.58;1.90;;;-1.60;1.00;;;;;;5215976;28;20023;-65
2023/04/05 05:05:01;;;;;;;5.70;2.30;;;-1.60;1.00;;;;;;5188179;28;20056;-64
2023/04/05 05:07:41;;;;;;;3.87;2.03;;;-1.50;1.00;;;;;;5219297;28;20051;-64
2023/04/05 05:10:15;;;;;;;2.30;1.83;;;-1.40;1.00;;;;;;5238307;28;20021;-64
2023/04/05 05:12:47;;;;;;;2.78;1.98;;;-1.30;1.00;;;;;;5199228;28;20059;-64
2023/04/05 05:15:21;;;;;;;2.47;2.00;;;-1.20;1.00;;;;;;5224778;28;20036;-64
2023/04/05 05:17:55;;;;;;;3.65;2.58;;;-1.20;1.00;;;;;;5221878;28;20110;-65
2023/04/05 05:20:32;;;;;;;2.20;2.00;;;-1.10;1.00;;;;;;5201642;28;20026;-64
2023/04/05 05:23:05;;;;;;;5.63;2.20;;;-0.90;1.00;;;;;;5220090;28;20042;-65
2023/04/05 05:25:37;;;;;;;5.05;2.25;;;-0.80;1.00;;;;;;5221402;28;20256;-64
2023/04/05 05:28:11;;;;;;;5.43;2.63;;;-0.60;99.90;;;;;;5219897;28;20028;-63
2023/04/05 05:30:44;;;;;;;11.32;5.38;;;-0.60;99.90;;;;;;5219621;28;20364;-63
2023/04/05 05:33:21;;;;;;;14.10;4.68;;;-0.50;99.90;;;;;;5203959;28;20024;-64
2023/04/05 05:35:55;;;;;;;7.38;3.30;;;-0.40;99.90;;;;;;5202939;28;20033;-64
2023/04/05 05:38:31;;;;;;;13.23;5.70;;;-0.40;99.90;;;;;;5189872;28;20035;-63
2023/04/05 05:41:04;;;;;;;8.57;3.25;;;-0.30;99.90;;;;;;5212831;28;20032;-64
2023/04/05 05:43:38;;;;;;;9.25;5.10;;;-0.20;99.90;;;;;;5195071;28;20052;-62
2023/04/05 05:46:09;;;;;;;8.63;3.07;;;-0.10;99.90;;;;;;5197915;28;20017;-62
2023/04/05 05:48:42;;;;;;;4.47;2.28;;;-0.10;99.90;;;;;;5189399;28;20083;-62
2023/04/05 05:51:17;;;;;;;3.28;2.35;;;0.10;1.00;;;;;;5201764;28;20032;-63
2023/04/05 05:53:51;;;;;;;5.20;2.38;;;0.20;1.00;;;;;;5236173;28;20028;-63
2023/04/05 05:56:22;;;;;;;4.40;1.80;;;0.30;1.00;;;;;;5216832;28;20020;-65
2023/04/05 05:58:54;;;;;;;6.05;2.42;;;0.30;1.00;;;;;;5223882;28;20036;-63
2023/04/05 06:01:29;;;;;;;2.72;1.90;;;0.30;1.00;;;;;;5228620;28;20241;-63
2023/04/05 06:04:09;;;;;;;3.53;2.22;;;0.40;99.90;;;;;;5209784;28;20029;-62
2023/04/05 06:06:42;;;;;;;3.58;2.25;;;0.50;99.90;;;;;;5174797;28;20473;-62
2023/04/05 06:09:17;;;;;;;5.13;2.17;;;0.60;99.90;;;;;;5211401;28;20045;-63
2023/04/05 06:11:58;;;;;;;4.43;1.58;;;0.70;99.90;;;;;;5220666;28;20020;-64
2023/04/05 06:14:30;;;;;;;3.03;2.28;;;0.90;99.90;;;;;;5201660;28;20044;-63
2023/04/05 06:17:03;;;;;;;2.35;1.80;;;0.90;99.90;;;;;;5217137;28;20481;-63
2023/04/05 06:19:36;;;;;;;2.65;1.45;;;0.90;99.90;;;;;;5203477;28;20036;-61
2023/04/05 06:22:08;;;;;;;3.10;1.80;;;1.10;99.90;;;;;;5236537;28;20037;-63
2023/04/05 06:24:41;;;;;;;4.88;1.90;;;1.00;59.60;;;;;;5227737;28;20276;-64
2023/04/05 06:27:19;;;;;;;3.80;1.98;;;1.10;1.00;;;;;;5206101;28;20044;-62
2023/04/05 06:29:54;;;;;;;4.75;1.58;;;1.20;1.00;;;;;;5181352;28;20032;-63
2023/04/05 06:32:29;;;;;;;4.13;2.30;;;1.20;1.00;;;;;;5229181;28;20564;-62
2023/04/05 06:35:02;;;;;;;3.03;1.90;;;1.30;1.00;;;;;;5198258;28;20063;-65
2023/04/05 06:37:40;;;;;;;3.35;1.88;;;1.40;1.00;;;;;;5188697;28;20256;-65
2023/04/05 06:40:18;;;;;;;3.40;2.10;;;1.60;1.00;;;;;;5216003;28;20036;-64
2023/04/05 06:42:51;;;;;;;3.78;1.98;;;1.70;1.00;;;;;;5224151;28;20020;-65
2023/04/05 06:45:25;;;;;;;7.85;2.72;;;1.80;1.00;;;;;;5203361;28;20399;-63
2023/04/05 06:47:59;;;;;;;8.82;3.85;;;1.90;1.00;;;;;;5232648;28;20045;-64
2023/04/05 06:50:32;;;;;;;3.50;2.28;;;1.80;1.00;;;;;;5215490;28;20033;-64
2023/04/05 06:53:04;;;;;;;5.13;2.93;;;1.80;1.00;;;;;;5230708;28;20025;-66
2023/04/05 06:55:35;;;;;;;7.80;2.75;;;1.90;1.00;;;;;;5211608;28;20393;-62
2023/04/05 06:58:06;;;;;;;3.83;2.28;;;1.90;1.00;;;;;;5185361;28;20060;-64
2023/04/05 07:00:40;;;;;;;6.72;2.40;;;2.00;1.00;;;;;;5221439;28;20032;-64
2023/04/05 07:03:18;;;;;;;5.07;2.50;;;2.10;1.00;;;;;;5205425;28;20170;-64
2023/04/05 07:06:01;;;;;;;4.43;2.10;;;2.20;1.00;;;;;;5181072;28;20055;-65
2023/04/05 07:08:35;;;;;;;2.78;1.90;;;2.20;1.00;;;;;;5230970;28;20036;-62
2023/04/05 07:11:07;;;;;;;4.57;2.35;;;2.20;1.00;;;;;;5212729;28;20601;-65
2023/04/05 07:13:38;;;;;;;3.33;2.13;;;2.50;1.00;;;;;;5214889;28;20050;-63
2023/04/05 07:16:12;;;;;;;5.95;2.00;;;2.50;1.00;;;;;;5194658;28;20039;-65
2023/04/05 07:18:45;;;;;;;2.65;1.85;;;2.30;1.00;;;;;;5212942;28;20353;-65
2023/04/05 07:21:22;;;;;;;2.15;1.90;;;2.40;1.00;;;;;;5208644;28;20028;-63
2023/04/05 07:23:59;;;;;;;2.97;2.20;;;2.60;1.00;;;;;;5213905;28;20051;-65
2023/04/05 07:26:33;;;;;;;3.85;2.13;;;2.50;1.00;;;;;;5228600;28;20027;-65
2023/04/05 07:29:08;;;;;;;3.08;1.67;;;2.40;1.00;;;;;;5206824;28;20294;-63
2023/04/05 07:31:40;;;;;;;4.10;1.98;;;2.50;1.00;;;;;;5197743;28;20029;-64
2023/04/05 07:34:14;;;;;;;5.57;2.15;;;2.60;1.00;;;;;;5212999;28;20221;-65
2023/04/05 07:36:45;;;;;;;3.13;1.90;;;2.80;99.90;;;;;;5199697;28;20055;-65
2023/04/05 07:39:17;;;;;;;3.28;1.85;;;3.00;99.90;;;;;;5217460;28;20028;-65
2023/04/05 07:41:49;;;;;;;7.05;2.45;;;3.10;99.90;;;;;;5217100;28;20050;-62
2023/04/05 07:44:20;;;;;;;4.78;1.92;;;3.50;99.90;;;;;;5217754;28;20058;-65
2023/04/05 07:46:51;;;;;;;3.53;2.30;;;3.60;99.90;;;;;;5227833;28;20036;-65
2023/04/05 07:49:36;;;;;;;4.18;1.83;;;3.50;99.90;;;;;;5198310;28;20047;-63
2023/04/05 07:52:07;;;;;;;4.68;2.10;;;3.70;99.90;;;;;;5214934;28;20021;-64
2023/04/05 07:54:40;;;;;;;3.35;2.15;;;3.50;99.90;;;;;;5216241;28;20040;-65
2023/04/05 07:57:19;;;;;;;2.30;1.85;;;3.60;99.90;;;;;;5189524;28;20035;-65
2023/04/05 07:59:53;;;;;;;3.58;2.05;;;3.80;99.90;;;;;;5213497;28;20029;-65
2023/04/05 08:02:35;;;;;;;3.72;2.15;;;3.70;99.90;;;;;;5209727;28;20450;-65
2023/04/05 08:05:09;;;;;;;2.95;2.22;;;3.90;99.90;;;;;;5181925;28;20044;-67
2023/04/05 08:07:40;;;;;;;;;;;3.80;99.90;;;;;;5188594;28;20443;-62
2023/04/05 08:10:15;;;;;;;2.80;2.03;;;3.60;99.90;;;;;;5215206;28;20009;-61
2023/04/05 08:12:48;;;;;;;2.58;1.75;;;3.60;1.00;;;;;;5199409;28;20033;-66
2023/04/05 08:15:20;;;;;;;2.95;2.35;;;3.40;99.90;;;;;;5175935;28;20036;-65
2023/04/05 08:17:51;;;;;;;3.75;2.00;;;3.60;1.00;;;;;;5196297;28;20322;-65
2023/04/05 08:20:22;;;;;;;2.55;1.63;;;3.80;1.00;;;;;;5223124;28;20032;-64
2023/04/05 08:22:53;;;;;;;2.53;1.58;;;3.70;1.00;;;;;;5200209;28;20046;-64
2023/04/05 08:25:25;;;;;;;4.38;2.67;;;3.80;1.00;;;;;;5216085;28;20033;-64
2023/04/05 08:27:56;;;;;;;2.55;1.98;;;4.00;99.90;;;;;;5234427;28;20182;-65
2023/04/05 08:30:30;;;;;;;3.83;2.25;;;4.40;98.00;;;;;;5198110;28;20341;-64
2023/04/05 08:33:04;;;;;;;2.35;1.70;;;4.50;1.00;;;;;;5216469;28;20046;-62
2023/04/05 08:35:39;;;;;;;5.65;1.65;;;4.70;99.90;;;;;;5211349;28;20029;-65
2023/04/05 08:38:11;;;;;;;2.80;1.80;;;4.60;1.00;;;;;;5198277;28;20307;-63
2023/04/05 08:40:46;;;;;;;3.38;2.00;;;4.60;1.00;;;;;;5214268;28;20033;-64
2023/04/05 08:43:46;;;;;;;5.20;1.73;;;4.90;87.80;;;;;;5213648;28;20452;-66
2023/04/05 08:46:19;;;;;;;6.05;2.45;;;4.90;1.00;;;;;;5211096;28;20183;-65
2023/04/05 08:48:51;;;;;;;2.35;2.03;;;4.60;1.00;;;;;;5196058;28;20036;-65
2023/04/05 08:51:26;;;;;;;4.80;1.92;;;4.10;1.00;;;;;;5206750;28;20332;-63
2023/04/05 08:54:03;;;;;;;2.10;1.60;;;4.00;1.00;;;;;;5214423;28;20233;-63
2023/04/05 08:56:38;;;;;;;3.65;2.10;;;4.50;99.90;;;;;;5179358;28;20033;-67
2023/04/05 08:59:14;;;;;;;5.47;1.98;;;4.70;1.00;;;;;;5195279;28;20559;-63
2023/04/05 09:01:51;;;;;;;2.85;1.90;;;4.80;99.90;;;;;;5218779;28;20031;-62
2023/04/05 09:04:27;;;;;;;4.43;1.88;;;5.40;99.90;;;;;;5202651;28;20040;-64
2023/04/05 09:07:03;;;;;;;4.38;2.08;;;5.60;1.00;;;;;;5233314;28;20342;-65
2023/04/05 09:09:38;;;;;;;5.18;2.20;;;4.80;1.00;;;;;;5201875;28;20055;-66
2023/04/05 09:12:10;;;;;;;3.90;2.00;;;4.80;1.00;;;;;;5214835;28;20376;-64
2023/04/05 09:14:47;;;;;;;4.88;2.03;;;4.80;1.00;;;;;;5219480;28;20032;-65
2023/04/05 09:17:20;;;;;;;3.55;1.95;;;4.70;99.90;;;;;;5235244;28;20016;-65
2023/04/05 09:19:54;;;;;;;2.40;1.77;;;4.90;99.90;;;;;;5219384;28;20270;-63
2023/04/05 09:22:26;;;;;;;3.55;2.17;;;5.30;1.00;;;;;;5218563;28;20313;-66
2023/04/05 09:25:05;;;;;;;2.35;1.60;;;5.60;1.00;;;;;;5183850;28;20029;-65
2023/04/05 09:27:59;;;;;;;2.92;1.80;;;5.80;99.90;;;;;;5210033;28;20040;-63
2023/04/05 09:30:35;;;;;;;2.25;1.70;;;5.80;1.00;;;;;;5216862;28;20040;-66
2023/04/05 09:33:09;;;;;;;3.75;1.90;;;5.30;99.90;;;;;;5219856;28;20036;-66
2023/04/05 09:35:42;;;;;;;2.53;1.80;;;5.40;1.00;;;;;;5201893;28;20048;-65
2023/04/05 09:38:14;;;;;;;3.58;1.77;;;5.10;1.00;;;;;;5218145;28;20025;-64
2023/04/05 09:40:47;;;;;;;3.90;1.67;;;5.00;99.90;;;;;;5235422;28;20067;-62
2023/04/05 09:43:38;;;;;;;2.50;1.50;;;5.30;1.00;;;;;;5202438;28;20067;-65
2023/04/05 09:46:40;;;;;;;4.93;2.03;;;5.70;1.00;;;;;;5200096;28;20035;-65
2023/04/05 09:49:13;;;;;;;4.07;2.00;;;5.80;1.00;;;;;;5218403;28;20039;-64
2023/04/05 09:51:45;;;;;;;4.97;2.45;;;6.50;1.00;;;;;;5202862;28;20043;-64
2023/04/05 09:54:19;;;;;;;4.03;2.00;;;7.10;99.90;;;;;;5183820;28;20046;-64
2023/04/05 09:56:57;;;;;;;2.55;2.00;;;6.80;1.00;;;;;;5194588;28;20436;-67
2023/04/05 09:59:28;;;;;;;3.65;2.42;;;6.50;99.90;;;;;;5218342;28;20039;-63
2023/04/05 10:01:59;;;;;;;3.20;2.03;;;6.20;51.70;;;;;;5204656;28;20039;-63
2023/04/05 10:04:48;;;;;;;2.53;1.67;;;6.50;99.90;;;;;;5191390;28;20044;-62
2023/04/05 10:07:22;;;;;;;3.65;2.47;;;7.30;1.00;;;;;;5236190;28;20569;-63
2023/04/05 10:09:56;;;;;;;2.33;1.90;;;7.20;1.00;;;;;;5218297;28;20024;-66
2023/04/05 10:12:28;;;;;;;2.85;2.25;;;7.50;1.00;;;;;;5204545;28;20209;-66
2023/04/05 10:15:00;;;;;;;4.32;2.55;;;8.50;74.80;;;;;;5202263;28;20032;-65
2023/04/05 10:17:50;;;;;;;2.78;2.58;;;8.30;1.00;;;;;;5232744;28;20233;-64
2023/04/05 10:20:28;;;;;;;3.20;1.98;;;7.20;1.00;;;;;;5201186;28;20042;-65
2023/04/05 10:23:03;;;;;;;2.83;2.30;;;7.00;1.00;;;;;;5217536;28;20340;-63
2023/04/05 10:25:55;;;;;;;4.45;1.70;;;7.10;1.00;;;;;;5201316;28;20046;-65
2023/04/05 10:28:41;;;;;;;2.58;1.73;;;6.90;1.00;;;;;;5217975;28;20041;-66
2023/04/05 10:31:38;;;;;;;3.20;1.98;;;7.50;1.00;;;;;;5232699;28;20021;-65
2023/04/05 10:34:34;;;;;;;4.50;2.47;;;9.00;1.00;;;;;;5196975;28;20345;-65
2023/04/05 10:37:06;;;;;;;2.45;2.00;;;10.10;1.00;;;;;;5213189;28;20039;-62
2023/04/05 10:39:50;;;;;;;2.50;2.20;;;10.60;1.00;;;;;;5197124;28;20025;-65
2023/04/05 10:42:39;;;;;;;5.30;2.38;;;9.60;1.00;;;;;;5179929;28;20037;-63
2023/04/05 10:45:18;;;;;;;5.32;2.28;;;7.70;1.00;;;;;;5213383;28;20241;-65
2023/04/05 10:48:00;;;;;;;4.68;2.90;;;6.80;1.00;;;;;;5215593;28;20309;-65
2023/04/05 10:50:33;;;;;;;3.97;2.50;;;6.70;1.00;;;;;;5199928;28;20253;-65
2023/04/05 10:53:11;;;;;;;3.13;2.05;;;7.00;1.00;;;;;;5199965;28;20025;-63
2023/04/05 10:55:44;;;;;;;7.50;2.45;;;8.50;1.00;;;;;;5216234;28;20028;-65
2023/04/05 10:58:16;;;;;;;2.50;1.85;;;8.50;1.00;;;;;;5216902;28;20030;-64
2023/04/05 11:00:53;;;;;;;3.63;2.00;;;7.60;1.00;;;;;;5213086;28;20320;-64
2023/04/05 11:03:43;;;;;;;5.05;1.83;;;7.20;1.00;;;;;;5225495;28;20055;-63
2023/04/05 11:06:24;;;;;;;3.92;2.35;;;7.70;1.00;;;;;;5206690;28;20040;-65
2023/04/05 11:09:19;;;;;;;3.40;2.17;;;7.10;1.00;;;;;;5216267;28;20383;-67
2023/04/05 11:11:53;;;;;;;2.78;2.00;;;7.70;1.00;;;;;;5234245;28;20113;-67
2023/04/05 11:14:43;;;;;;;3.28;2.28;;;7.70;1.00;;;;;;5222918;28;20025;-64
2023/04/05 11:17:27;;;;;;;5.03;2.08;;;7.10;1.00;;;;;;5191708;28;20310;-66
2023/04/05 11:20:12;;;;;;;2.70;2.08;;;7.50;1.00;;;;;;5212627;28;20545;-63
2023/04/05 11:22:53;;;;;;;4.55;2.50;;;6.90;1.00;;;;;;5213259;28;20250;-65
2023/04/05 11:25:30;;;;;;;2.78;2.10;;;6.50;1.00;;;;;;5195911;28;20059;-64
2023/04/05 11:28:04;;;;;;;5.32;2.42;;;7.00;1.00;;;;;;5195060;28;20041;-64
2023/04/05 11:30:51;;;;;;;;;;;7.40;1.00;;;;;;5176927;28;20035;-66
2023/04/05 11:33:59;;;;;;;2.03;1.83;;;7.30;1.00;;;;;;5205426;28;19900;-64
2023/04/05 11:36:35;;;;;;;2.33;1.88;;;9.20;1.00;;;;;;5133221;28;20343;-65
2023/04/05 11:39:18;;;;;;;4.28;2.10;;;10.40;1.00;;;;;;5133005;28;20049;-66
2023/04/05 11:42:08;;;;;;;2.50;1.75;;;10.90;1.00;;;;;;5133475;28;20033;-64
2023/04/05 11:44:51;;;;;;;2.83;2.28;;;11.60;1.00;;;;;;5149866;28;20034;-66
2023/04/05 11:47:26;;;;;;;2.15;1.88;;;10.80;1.00;;;;;;5121454;28;20255;-63
2023/04/05 11:49:58;;;;;;;2.72;1.77;;;9.60;1.00;;;;;;5186025;28;20068;-67
2023/04/05 11:52:30;;;;;;;3.97;2.15;;;8.30;1.00;;;;;;5134684;28;20174;-65
2023/04/05 11:55:04;;;;;;;2.78;1.60;;;7.30;1.00;;;;;;5138382;28;20048;-64
2023/04/05 11:57:36;;;;;;;3.30;1.92;;;7.30;1.00;;;;;;5137315;28;20044;-64
2023/04/05 12:00:08;;;;;;;2.53;2.03;;;8.60;1.00;;;;;;5120084;28;20030;-65
2023/04/05 12:02:44;;;;;;;2.17;1.98;;;10.60;1.00;;;;;;5137616;28;20034;-66
2023/04/05 12:05:16;;;;;;;4.95;2.30;;;12.80;1.00;;;;;;5148238;28;20255;-63
2023/04/05 12:07:53;;;;;;;4.60;2.30;;;13.60;1.00;;;;;;5169862;28;20192;-68
2023/04/05 12:10:29;;;;;;;3.88;2.13;;;13.60;1.00;;;;;;5199079;28;20332;-65
2023/04/05 12:13:00;;;;;;;4.53;2.10;;;10.70;1.00;;;;;;5231272;28;20241;-67
2023/04/05 12:15:39;;;;;;;3.40;1.80;;;10.70;1.00;;;;;;5227354;28;20036;-63
2023/04/05 12:18:14;;;;;;;4.13;2.22;;;10.50;1.00;;;;;;5234416;28;20046;-67
2023/04/05 12:20:48;;;;;;;2.25;1.77;;;11.90;1.00;;;;;;5233287;28;20036;-65
2023/04/05 12:23:22;;;;;;;3.67;1.80;;;11.70;1.00;;;;;;5198764;28;20039;-66
2023/04/05 12:25:57;;;;;;;2.80;2.33;;;11.30;1.00;;;;;;5207520;28;20063;-68
2023/04/05 12:29:00;;;;;;;2.58;2.08;;;12.10;1.00;;;;;;5200296;28;20024;-65
2023/04/05 12:31:44;;;;;;;2.85;2.22;;;13.10;1.00;;;;;;5196254;28;20326;-68
2023/04/05 12:34:23;;;;;;;3.58;2.30;;;13.70;1.00;;;;;;5199582;28;20036;-67
2023/04/05 12:36:55;;;;;;;2.50;2.10;;;12.90;1.00;;;;;;5199063;28;20461;-65
2023/04/05 12:39:30;;;;;;;3.03;2.42;;;13.50;1.00;;;;;;5193116;28;20034;-64
2023/04/05 12:42:06;;;;;;;;;;;13.60;1.00;;;;;;5212874;28;20037;-66
2023/04/05 12:45:00;;;;;;;4.90;2.28;;;12.00;1.00;;;;;;5231529;28;20048;-62
2023/04/05 12:47:35;;;;;;;3.53;2.43;;;12.70;1.00;;;;;;5217684;28;20060;-65
2023/04/05 12:50:14;;;;;;;;;;;13.10;1.00;;;;;;5237210;28;20034;-65
2023/04/05 12:52:56;;;;;;;7.38;2.25;;;11.20;1.00;;;;;;5218793;28;19912;-62
2023/04/05 12:55:29;;;;;;;4.85;1.75;;;9.80;1.00;;;;;;5237019;28;20025;-66
2023/04/05 12:58:04;;;;;;;3.03;2.53;;;9.30;1.00;;;;;;5217260;28;20039;-65
2023/04/05 13:00:35;;;;;;;4.03;2.28;;;10.10;1.00;;;;;;5196177;28;20028;-65
2023/04/05 13:03:19;;;;;;;2.65;2.22;;;10.90;1.00;;;;;;5232809;28;20680;-65
2023/04/05 13:05:50;;;;;;;2.95;2.05;;;11.30;1.00;;;;;;5210380;28;20040;-67
2023/04/05 13:08:25;;;;;;;2.70;2.38;;;11.80;1.00;;;;;;5237030;28;20024;-63
2023/04/05 13:10:57;;;;;;;4.22;2.55;;;13.00;1.00;;;;;;5235736;28;20387;-64
2023/04/05 13:13:28;;;;;;;2.65;2.15;;;13.10;1.00;;;;;;5236736;28;20043;-63
2023/04/05 13:16:01;;;;;;;5.15;2.22;;;12.80;1.00;;;;;;5235310;28;20028;-65
2023/04/05 13:18:32;;;;;;;3.65;2.20;;;12.50;1.00;;;;;;5234795;28;20344;-67
2023/04/05 13:21:11;;;;;;;2.70;2.00;;;12.20;1.00;;;;;;5217112;28;20021;-67
2023/04/05 13:23:45;;;;;;;2.50;2.20;;;12.70;1.00;;;;;;5216411;28;20045;-66
2023/04/05 13:26:19;;;;;;;3.67;2.00;;;14.20;1.00;;;;;;5200158;28;20035;-66
2023/04/05 13:28:51;;;;;;;2.40;2.20;;;11.20;1.00;;;;;;5202711;28;20047;-67
2023/04/05 13:31:22;;;;;;;4.20;2.10;;;9.60;1.00;;;;;;5236086;28;20051;-67
2023/04/05 13:33:53;;;;;;;3.50;1.90;;;8.90;1.00;;;;;;5219457;28;20036;-66
2023/04/05 13:36:27;;;;;;;1.73;1.42;;;9.60;99.90;;;;;;5219349;28;20405;-67
2023/04/05 13:39:01;;;;;;;3.55;2.47;;;11.90;99.90;;;;;;5200622;28;20036;-65
2023/04/05 13:41:32;;;;;;;2.25;2.05;;;13.10;1.00;;;;;;5199270;28;20051;-67
2023/04/05 13:44:06;;;;;;;2.67;2.42;;;12.30;1.00;;;;;;5188102;28;20040;-68
2023/04/05 13:46:40;;;;;;;2.67;1.98;;;10.50;99.90;;;;;;5199699;28;20249;-68